sensor_id;sensor_type;location;lat;lon;timestamp;pressure;altitude;pressure_sealevel;temperature;humidity
53719;BME280;39616;48.872;9.390;2023-06-14T00:01:55;97840.59;;;13.21;59.61
53719;BME280;39616;48.872;9.390;2023-06-14T00:04:26;97844.00;;;13.18;58.93
53719;BME280;39616;48.872;9.390;2023-06-14T00:06:56;97843.38;;;13.13;59.40
53719;BME280;39616;48.872;9.390;2023-06-14T00:09:27;97839.38;;;13.10;59.40
53719;BME280;39616;48.872;9.390;2023-06-14T00:11:57;97846.56;;;13.06;59.85
53719;BME280;39616;48.872;9.390;2023-06-14T00:14:27;97842.59;;;12.95;60.50
53719;BME280;39616;48.872;9.390;2023-06-14T00:16:58;97831.91;;;12.81;60.94
53719;BME280;39616;48.872;9.390;2023-06-14T00:19:28;97836.41;;;12.68;61.13
53719;BME280;39616;48.872;9.390;2023-06-14T00:22:00;97832.59;;;12.52;61.90
53719;BME280;39616;48.872;9.390;2023-06-14T00:24:31;97826.16;;;12.48;62.09
53719;BME280;39616;48.872;9.390;2023-06-14T00:27:01;97833.06;;;12.45;62.00
53719;BME280;39616;48.872;9.390;2023-06-14T00:29:31;97832.28;;;12.45;61.88
53719;BME280;39616;48.872;9.390;2023-06-14T00:32:02;97833.06;;;12.45;63.20
53719;BME280;39616;48.872;9.390;2023-06-14T00:34:32;97828.88;;;12.48;63.30
53719;BME280;39616;48.872;9.390;2023-06-14T00:37:03;97838.03;;;12.52;62.80
53719;BME280;39616;48.872;9.390;2023-06-14T00:39:33;97832.44;;;12.48;62.67
53719;BME280;39616;48.872;9.390;2023-06-14T00:42:04;97831.44;;;12.44;63.24
53719;BME280;39616;48.872;9.390;2023-06-14T00:44:35;97828.56;;;12.41;62.72
53719;BME280;39616;48.872;9.390;2023-06-14T00:47:05;97837.06;;;12.39;62.53
53719;BME280;39616;48.872;9.390;2023-06-14T00:49:36;97830.50;;;12.40;62.53
53719;BME280;39616;48.872;9.390;2023-06-14T00:52:06;97838.03;;;12.35;62.52
53719;BME280;39616;48.872;9.390;2023-06-14T00:54:37;97839.00;;;12.30;62.73
53719;BME280;39616;48.872;9.390;2023-06-14T00:57:09;97833.38;;;12.26;62.79
53719;BME280;39616;48.872;9.390;2023-06-14T00:59:43;97836.28;;;12.30;62.82
53719;BME280;39616;48.872;9.390;2023-06-14T01:02:14;97839.16;;;12.33;63.83
53719;BME280;39616;48.872;9.390;2023-06-14T01:04:49;97836.25;;;12.39;62.59
53719;BME280;39616;48.872;9.390;2023-06-14T01:07:40;97839.31;;;12.37;62.44
53719;BME280;39616;48.872;9.390;2023-06-14T01:10:53;97835.94;;;12.31;62.74
53719;BME280;39616;48.872;9.390;2023-06-14T01:13:34;97835.16;;;12.31;62.65
53719;BME280;39616;48.872;9.390;2023-06-14T01:16:06;97836.56;;;12.28;62.98
53719;BME280;39616;48.872;9.390;2023-06-14T01:18:38;97836.56;;;12.28;63.13
53719;BME280;39616;48.872;9.390;2023-06-14T01:21:20;97850.66;;;12.30;62.72
53719;BME280;39616;48.872;9.390;2023-06-14T01:23:52;97841.69;;;12.39;62.95
53719;BME280;39616;48.872;9.390;2023-06-14T01:26:25;97841.69;;;12.39;62.20
53719;BME280;39616;48.872;9.390;2023-06-14T01:28:59;97841.22;;;12.37;61.92
53719;BME280;39616;48.872;9.390;2023-06-14T01:31:29;97843.47;;;12.35;61.66
53719;BME280;39616;48.872;9.390;2023-06-14T01:34:10;97838.50;;;12.28;61.86
53719;BME280;39616;48.872;9.390;2023-06-14T01:36:41;97836.25;;;12.21;62.56
53719;BME280;39616;48.872;9.390;2023-06-14T01:39:14;97840.41;;;12.19;62.55
53719;BME280;39616;48.872;9.390;2023-06-14T01:41:49;97838.47;;;12.11;62.56
53719;BME280;39616;48.872;9.390;2023-06-14T01:44:20;97842.47;;;12.04;62.86
53719;BME280;39616;48.872;9.390;2023-06-14T01:46:51;97842.31;;;12.01;63.56
53719;BME280;39616;48.872;9.390;2023-06-14T01:49:21;97843.91;;;12.02;63.88
53719;BME280;39616;48.872;9.390;2023-06-14T01:51:52;97840.38;;;12.01;63.72
53719;BME280;39616;48.872;9.390;2023-06-14T01:54:22;97853.66;;;12.03;64.32
53719;BME280;39616;48.872;9.390;2023-06-14T01:56:53;97849.34;;;12.02;63.46
53719;BME280;39616;48.872;9.390;2023-06-14T01:59:23;97845.50;;;12.03;63.98
53719;BME280;39616;48.872;9.390;2023-06-14T02:01:53;97847.25;;;11.99;64.08
53719;BME280;39616;48.872;9.390;2023-06-14T02:04:24;97844.69;;;11.94;63.69
53719;BME280;39616;48.872;9.390;2023-06-14T02:06:54;97837.63;;;11.84;63.68
53719;BME280;39616;48.872;9.390;2023-06-14T02:09:25;97847.66;;;11.75;64.37
53719;BME280;39616;48.872;9.390;2023-06-14T02:11:55;97846.00;;;11.56;64.87
53719;BME280;39616;48.872;9.390;2023-06-14T02:14:26;97841.91;;;11.36;65.43
53719;BME280;39616;48.872;9.390;2023-06-14T02:16:57;97838.66;;;11.26;65.90
53719;BME280;39616;48.872;9.390;2023-06-14T02:19:28;97840.56;;;11.17;66.12
53719;BME280;39616;48.872;9.390;2023-06-14T02:21:59;97837.78;;;11.08;66.21
53719;BME280;39616;48.872;9.390;2023-06-14T02:24:29;97838.09;;;11.06;66.11
53719;BME280;39616;48.872;9.390;2023-06-14T02:26:59;97834.22;;;10.99;66.25
53719;BME280;39616;48.872;9.390;2023-06-14T02:29:30;97837.88;;;10.94;66.75
53719;BME280;39616;48.872;9.390;2023-06-14T02:32:00;97840.09;;;10.92;66.56
53719;BME280;39616;48.872;9.390;2023-06-14T02:34:30;97842.34;;;10.90;66.90
53719;BME280;39616;48.872;9.390;2023-06-14T02:37:01;97851.28;;;10.91;66.94
53719;BME280;39616;48.872;9.390;2023-06-14T02:39:33;97847.13;;;10.93;66.96
53719;BME280;39616;48.872;9.390;2023-06-14T02:42:03;97850.06;;;11.05;66.88
53719;BME280;39616;48.872;9.390;2023-06-14T02:44:33;97847.41;;;11.14;66.76
53719;BME280;39616;48.872;9.390;2023-06-14T02:47:04;97855.72;;;11.18;66.64
53719;BME280;39616;48.872;9.390;2023-06-14T02:49:35;97845.72;;;11.27;66.75
53719;BME280;39616;48.872;9.390;2023-06-14T02:52:05;97850.31;;;11.26;66.87
53719;BME280;39616;48.872;9.390;2023-06-14T02:54:36;97851.44;;;11.25;66.87
53719;BME280;39616;48.872;9.390;2023-06-14T02:57:06;97852.38;;;11.21;67.30
53719;BME280;39616;48.872;9.390;2023-06-14T02:59:37;97849.63;;;11.12;66.94
53719;BME280;39616;48.872;9.390;2023-06-14T03:02:08;97857.66;;;10.95;67.53
53719;BME280;39616;48.872;9.390;2023-06-14T03:04:38;97861.19;;;10.73;68.27
53719;BME280;39616;48.872;9.390;2023-06-14T03:07:10;97852.31;;;10.58;68.91
53719;BME280;39616;48.872;9.390;2023-06-14T03:09:41;97859.56;;;10.49;69.68
53719;BME280;39616;48.872;9.390;2023-06-14T03:12:11;97855.56;;;10.47;70.01
53719;BME280;39616;48.872;9.390;2023-06-14T03:14:41;97870.84;;;10.43;70.43
53719;BME280;39616;48.872;9.390;2023-06-14T03:17:13;97864.31;;;10.44;70.85
53719;BME280;39616;48.872;9.390;2023-06-14T03:19:43;97865.13;;;10.44;70.86
53719;BME280;39616;48.872;9.390;2023-06-14T03:22:13;97870.06;;;10.42;70.99
53719;BME280;39616;48.872;9.390;2023-06-14T03:24:44;97880.19;;;10.36;69.91
53719;BME280;39616;48.872;9.390;2023-06-14T03:27:14;97880.13;;;10.28;70.42
53719;BME280;39616;48.872;9.390;2023-06-14T03:29:46;97883.22;;;10.21;70.92
53719;BME280;39616;48.872;9.390;2023-06-14T03:32:16;97885.75;;;10.18;71.14
53719;BME280;39616;48.872;9.390;2023-06-14T03:34:46;97880.31;;;10.18;70.80
53719;BME280;39616;48.872;9.390;2023-06-14T03:37:17;97884.63;;;10.19;70.63
53719;BME280;39616;48.872;9.390;2023-06-14T03:39:47;97884.34;;;10.20;70.42
53719;BME280;39616;48.872;9.390;2023-06-14T03:42:17;97881.53;;;10.25;69.92
53719;BME280;39616;48.872;9.390;2023-06-14T03:44:48;97879.72;;;10.21;70.31
53719;BME280;39616;48.872;9.390;2023-06-14T03:47:18;97893.53;;;10.19;70.74
53719;BME280;39616;48.872;9.390;2023-06-14T03:49:48;97885.34;;;10.10;71.35
53719;BME280;39616;48.872;9.390;2023-06-14T03:52:18;97885.81;;;10.12;71.51
53719;BME280;39616;48.872;9.390;2023-06-14T03:54:49;97889.56;;;10.16;71.19
53719;BME280;39616;48.872;9.390;2023-06-14T03:57:19;97888.31;;;10.23;70.56
53719;BME280;39616;48.872;9.390;2023-06-14T03:59:53;97898.31;;;10.27;70.59
53719;BME280;39616;48.872;9.390;2023-06-14T04:02:23;97893.88;;;10.31;70.78
53719;BME280;39616;48.872;9.390;2023-06-14T04:04:53;97899.28;;;10.31;70.96
53719;BME280;39616;48.872;9.390;2023-06-14T04:07:24;97900.97;;;10.41;70.71
53719;BME280;39616;48.872;9.390;2023-06-14T04:09:55;97905.78;;;10.44;70.53
53719;BME280;39616;48.872;9.390;2023-06-14T04:12:25;97899.13;;;10.50;70.65
53719;BME280;39616;48.872;9.390;2023-06-14T04:14:56;97910.19;;;10.54;70.56
53719;BME280;39616;48.872;9.390;2023-06-14T04:17:26;97910.19;;;10.54;70.94
53719;BME280;39616;48.872;9.390;2023-06-14T04:19:56;97916.16;;;10.64;70.76
53719;BME280;39616;48.872;9.390;2023-06-14T04:22:28;97913.50;;;10.73;70.41
53719;BME280;39616;48.872;9.390;2023-06-14T04:24:59;97916.38;;;10.91;69.89
53719;BME280;39616;48.872;9.390;2023-06-14T04:27:29;97922.03;;;11.03;68.98
53719;BME280;39616;48.872;9.390;2023-06-14T04:30:01;97927.16;;;11.27;68.80
53719;BME280;39616;48.872;9.390;2023-06-14T04:32:32;97925.31;;;11.45;68.22
53719;BME280;39616;48.872;9.390;2023-06-14T04:35:09;97930.22;;;11.65;67.31
53719;BME280;39616;48.872;9.390;2023-06-14T04:37:39;97933.00;;;11.82;66.70
53719;BME280;39616;48.872;9.390;2023-06-14T04:40:11;97933.25;;;12.03;66.82
53719;BME280;39616;48.872;9.390;2023-06-14T04:42:42;97934.44;;;12.20;66.04
53719;BME280;39616;48.872;9.390;2023-06-14T04:45:15;97933.81;;;12.40;65.71
53719;BME280;39616;48.872;9.390;2023-06-14T04:47:46;97935.13;;;12.60;65.00
53719;BME280;39616;48.872;9.390;2023-06-14T04:50:17;97937.56;;;12.70;63.72
53719;BME280;39616;48.872;9.390;2023-06-14T04:52:48;97932.41;;;12.77;64.62
53719;BME280;39616;48.872;9.390;2023-06-14T04:55:21;97940.09;;;12.84;64.16
53719;BME280;39616;48.872;9.390;2023-06-14T04:57:52;97941.53;;;12.90;63.83
53719;BME280;39616;48.872;9.390;2023-06-14T05:00:23;97947.94;;;12.94;63.47
53719;BME280;39616;48.872;9.390;2023-06-14T05:02:53;97952.28;;;13.04;63.53
53719;BME280;39616;48.872;9.390;2023-06-14T05:05:24;97944.59;;;13.15;63.81
53719;BME280;39616;48.872;9.390;2023-06-14T05:07:55;97952.75;;;13.23;63.52
53719;BME280;39616;48.872;9.390;2023-06-14T05:10:25;97951.63;;;13.33;64.00
53719;BME280;39616;48.872;9.390;2023-06-14T05:12:55;97947.44;;;13.44;63.43
53719;BME280;39616;48.872;9.390;2023-06-14T05:15:26;97949.00;;;13.63;62.32
53719;BME280;39616;48.872;9.390;2023-06-14T05:17:56;97947.47;;;13.83;61.78
53719;BME280;39616;48.872;9.390;2023-06-14T05:20:27;97944.56;;;13.88;60.81
53719;BME280;39616;48.872;9.390;2023-06-14T05:22:57;97941.75;;;14.05;60.78
53719;BME280;39616;48.872;9.390;2023-06-14T05:25:28;97946.41;;;14.05;61.30
53719;BME280;39616;48.872;9.390;2023-06-14T05:27:58;97950.03;;;14.17;59.89
53719;BME280;39616;48.872;9.390;2023-06-14T05:30:28;97947.22;;;14.35;59.41
53719;BME280;39616;48.872;9.390;2023-06-14T05:33:00;97940.91;;;14.43;58.93
53719;BME280;39616;48.872;9.390;2023-06-14T05:35:31;97943.75;;;14.55;57.70
53719;BME280;39616;48.872;9.390;2023-06-14T05:38:01;97949.19;;;14.76;59.53
53719;BME280;39616;48.872;9.390;2023-06-14T05:40:31;97952.16;;;14.92;58.10
53719;BME280;39616;48.872;9.390;2023-06-14T05:43:02;97957.31;;;15.06;57.98
53719;BME280;39616;48.872;9.390;2023-06-14T05:45:32;97952.84;;;15.22;56.33
53719;BME280;39616;48.872;9.390;2023-06-14T05:48:02;97958.63;;;15.20;56.99
53719;BME280;39616;48.872;9.390;2023-06-14T05:50:33;97962.06;;;15.17;57.11
53719;BME280;39616;48.872;9.390;2023-06-14T05:53:03;97954.16;;;15.37;57.16
53719;BME280;39616;48.872;9.390;2023-06-14T05:55:34;97953.00;;;15.38;55.96
53719;BME280;39616;48.872;9.390;2023-06-14T05:58:04;97954.91;;;15.58;55.72
53719;BME280;39616;48.872;9.390;2023-06-14T06:00:34;97955.47;;;15.64;54.84
53719;BME280;39616;48.872;9.390;2023-06-14T06:03:05;97959.75;;;15.74;54.73
53719;BME280;39616;48.872;9.390;2023-06-14T06:05:38;97951.91;;;15.84;55.04
53719;BME280;39616;48.872;9.390;2023-06-14T06:08:09;97955.34;;;16.06;54.30
53719;BME280;39616;48.872;9.390;2023-06-14T06:10:39;97954.78;;;16.25;54.08
53719;BME280;39616;48.872;9.390;2023-06-14T06:13:10;97951.34;;;16.28;55.34
53719;BME280;39616;48.872;9.390;2023-06-14T06:15:40;97962.16;;;16.49;53.49
53719;BME280;39616;48.872;9.390;2023-06-14T06:18:10;97954.31;;;16.47;53.34
53719;BME280;39616;48.872;9.390;2023-06-14T06:20:40;97960.53;;;16.60;54.00
53719;BME280;39616;48.872;9.390;2023-06-14T06:23:11;97964.53;;;16.87;53.06
53719;BME280;39616;48.872;9.390;2023-06-14T06:25:42;97962.94;;;16.74;51.97
53719;BME280;39616;48.872;9.390;2023-06-14T06:28:13;97964.03;;;16.97;51.59
53719;BME280;39616;48.872;9.390;2023-06-14T06:30:43;97961.78;;;17.15;51.94
53719;BME280;39616;48.872;9.390;2023-06-14T06:33:14;97963.09;;;17.33;51.34
53719;BME280;39616;48.872;9.390;2023-06-14T06:35:44;97969.25;;;17.58;51.44
53719;BME280;39616;48.872;9.390;2023-06-14T06:38:15;97958.38;;;17.90;48.91
53719;BME280;39616;48.872;9.390;2023-06-14T06:40:45;97966.22;;;17.48;52.32
53719;BME280;39616;48.872;9.390;2023-06-14T06:43:16;97962.88;;;17.82;52.57
53719;BME280;39616;48.872;9.390;2023-06-14T06:45:48;97974.19;;;17.97;51.64
53719;BME280;39616;48.872;9.390;2023-06-14T06:48:18;97967.16;;;18.47;48.85
53719;BME280;39616;48.872;9.390;2023-06-14T06:50:48;97975.38;;;18.63;48.07
53719;BME280;39616;48.872;9.390;2023-06-14T06:53:19;97979.50;;;18.88;47.73
53719;BME280;39616;48.872;9.390;2023-06-14T06:55:49;97979.09;;;19.25;47.66
53719;BME280;39616;48.872;9.390;2023-06-14T06:58:19;97978.38;;;19.28;46.61
53719;BME280;39616;48.872;9.390;2023-06-14T07:00:52;97978.22;;;19.21;46.60
53719;BME280;39616;48.872;9.390;2023-06-14T07:03:22;97976.16;;;19.76;47.12
53719;BME280;39616;48.872;9.390;2023-06-14T07:05:53;97980.50;;;19.58;46.13
53719;BME280;39616;48.872;9.390;2023-06-14T07:08:23;97980.81;;;19.72;47.08
53719;BME280;39616;48.872;9.390;2023-06-14T07:10:54;97983.25;;;19.77;45.67
53719;BME280;39616;48.872;9.390;2023-06-14T07:13:24;97988.09;;;20.07;45.55
53719;BME280;39616;48.872;9.390;2023-06-14T07:15:58;97990.56;;;20.12;45.74
53719;BME280;39616;48.872;9.390;2023-06-14T07:18:28;97989.81;;;19.92;45.52
53719;BME280;39616;48.872;9.390;2023-06-14T07:20:58;97991.72;;;20.11;45.61
53719;BME280;39616;48.872;9.390;2023-06-14T07:23:29;97989.94;;;20.22;45.31
53719;BME280;39616;48.872;9.390;2023-06-14T07:25:59;97983.50;;;20.60;45.33
53719;BME280;39616;48.872;9.390;2023-06-14T07:28:29;97992.78;;;21.05;43.67
53719;BME280;39616;48.872;9.390;2023-06-14T07:31:00;97996.81;;;21.11;43.19
53719;BME280;39616;48.872;9.390;2023-06-14T07:33:30;98001.94;;;21.13;43.31
53719;BME280;39616;48.872;9.390;2023-06-14T07:36:00;97993.00;;;21.23;43.03
53719;BME280;39616;48.872;9.390;2023-06-14T07:38:30;98003.78;;;21.65;41.89
53719;BME280;39616;48.872;9.390;2023-06-14T07:41:01;97993.56;;;22.07;41.47
53719;BME280;39616;48.872;9.390;2023-06-14T07:43:31;97994.75;;;22.06;41.03
53719;BME280;39616;48.872;9.390;2023-06-14T07:46:02;97997.31;;;22.25;40.73
53719;BME280;39616;48.872;9.390;2023-06-14T07:48:32;97997.50;;;22.06;40.49
53719;BME280;39616;48.872;9.390;2023-06-14T07:51:02;98005.44;;;22.55;39.95
53719;BME280;39616;48.872;9.390;2023-06-14T07:53:33;98008.25;;;22.14;40.85
53719;BME280;39616;48.872;9.390;2023-06-14T07:56:04;98002.38;;;22.71;40.44
53719;BME280;39616;48.872;9.390;2023-06-14T07:58:34;98003.44;;;22.56;40.66
53719;BME280;39616;48.872;9.390;2023-06-14T08:01:04;98010.53;;;22.09;40.26
53719;BME280;39616;48.872;9.390;2023-06-14T08:03:36;98008.50;;;22.95;40.98
53719;BME280;39616;48.872;9.390;2023-06-14T08:06:07;98003.59;;;22.74;40.39
53719;BME280;39616;48.872;9.390;2023-06-14T08:08:37;98007.16;;;22.26;41.10
53719;BME280;39616;48.872;9.390;2023-06-14T08:13:38;98007.34;;;22.48;41.05
53719;BME280;39616;48.872;9.390;2023-06-14T08:16:08;98011.75;;;22.11;40.84
53719;BME280;39616;48.872;9.390;2023-06-14T08:18:39;98015.63;;;22.48;41.05
53719;BME280;39616;48.872;9.390;2023-06-14T08:21:09;98012.59;;;22.63;40.08
53719;BME280;39616;48.872;9.390;2023-06-14T08:23:39;98009.75;;;22.56;41.13
53719;BME280;39616;48.872;9.390;2023-06-14T08:26:10;98011.00;;;23.21;40.82
53719;BME280;39616;48.872;9.390;2023-06-14T08:28:41;98011.53;;;22.82;40.35
53719;BME280;39616;48.872;9.390;2023-06-14T08:31:11;98008.50;;;22.98;40.58
53719;BME280;39616;48.872;9.390;2023-06-14T08:33:41;98009.16;;;23.50;39.03
53719;BME280;39616;48.872;9.390;2023-06-14T08:36:13;98015.84;;;23.46;39.28
53719;BME280;39616;48.872;9.390;2023-06-14T08:38:43;98010.91;;;23.07;39.63
53719;BME280;39616;48.872;9.390;2023-06-14T08:41:20;98017.03;;;22.79;39.49
53719;BME280;39616;48.872;9.390;2023-06-14T08:43:52;98021.41;;;23.60;38.67
53719;BME280;39616;48.872;9.390;2023-06-14T08:46:25;98018.97;;;23.37;38.28
53719;BME280;39616;48.872;9.390;2023-06-14T08:48:57;98008.53;;;24.28;37.17
53719;BME280;39616;48.872;9.390;2023-06-14T08:51:30;98023.56;;;24.06;36.95
53719;BME280;39616;48.872;9.390;2023-06-14T08:54:04;98012.50;;;24.70;36.83
53719;BME280;39616;48.872;9.390;2023-06-14T08:56:37;98018.03;;;24.85;35.32
53719;BME280;39616;48.872;9.390;2023-06-14T08:59:09;98014.50;;;24.27;36.67
53719;BME280;39616;48.872;9.390;2023-06-14T09:01:39;98015.22;;;25.10;35.86
53719;BME280;39616;48.872;9.390;2023-06-14T09:04:10;98010.16;;;24.51;35.87
53719;BME280;39616;48.872;9.390;2023-06-14T09:06:40;98027.78;;;23.60;36.84
53719;BME280;39616;48.872;9.390;2023-06-14T09:09:11;98016.88;;;24.64;35.94
53719;BME280;39616;48.872;9.390;2023-06-14T09:11:42;98018.41;;;24.15;36.55
53719;BME280;39616;48.872;9.390;2023-06-14T09:14:13;98015.63;;;23.90;36.76
53719;BME280;39616;48.872;9.390;2023-06-14T09:16:43;98013.72;;;24.51;36.72
53719;BME280;39616;48.872;9.390;2023-06-14T09:19:21;98024.78;;;24.76;35.92
53719;BME280;39616;48.872;9.390;2023-06-14T09:21:52;98012.78;;;26.14;34.96
53719;BME280;39616;48.872;9.390;2023-06-14T09:24:26;98012.81;;;26.66;33.73
53719;BME280;39616;48.872;9.390;2023-06-14T09:26:56;98012.72;;;26.73;33.05
53719;BME280;39616;48.872;9.390;2023-06-14T09:29:28;98016.81;;;24.96;35.82
53719;BME280;39616;48.872;9.390;2023-06-14T09:31:58;98034.66;;;24.13;36.80
53719;BME280;39616;48.872;9.390;2023-06-14T09:34:29;98026.00;;;24.47;35.94
53719;BME280;39616;48.872;9.390;2023-06-14T09:36:59;98021.53;;;23.89;36.50
53719;BME280;39616;48.872;9.390;2023-06-14T09:39:30;98027.97;;;24.43;34.77
53719;BME280;39616;48.872;9.390;2023-06-14T09:42:00;98029.13;;;24.20;34.33
53719;BME280;39616;48.872;9.390;2023-06-14T09:44:30;98026.41;;;24.49;34.75
53719;BME280;39616;48.872;9.390;2023-06-14T09:47:02;98020.19;;;25.65;33.61
53719;BME280;39616;48.872;9.390;2023-06-14T09:49:33;98021.13;;;25.29;34.10
53719;BME280;39616;48.872;9.390;2023-06-14T09:52:04;98025.13;;;25.00;35.45
53719;BME280;39616;48.872;9.390;2023-06-14T09:54:41;98029.50;;;25.12;33.58
53719;BME280;39616;48.872;9.390;2023-06-14T09:57:22;98028.25;;;25.34;32.83
53719;BME280;39616;48.872;9.390;2023-06-14T09:59:57;98023.63;;;25.94;31.39
53719;BME280;39616;48.872;9.390;2023-06-14T10:02:36;98028.38;;;25.97;30.02
53719;BME280;39616;48.872;9.390;2023-06-14T10:05:08;98019.72;;;26.92;30.52
53719;BME280;39616;48.872;9.390;2023-06-14T10:07:44;98019.97;;;27.77;28.63
53719;BME280;39616;48.872;9.390;2023-06-14T10:10:18;98019.88;;;28.11;28.25
53719;BME280;39616;48.872;9.390;2023-06-14T10:12:49;98023.28;;;27.95;28.13
53719;BME280;39616;48.872;9.390;2023-06-14T10:15:32;98030.44;;;26.90;28.57
53719;BME280;39616;48.872;9.390;2023-06-14T10:23:33;98024.88;;;26.48;28.22
53719;BME280;39616;48.872;9.390;2023-06-14T10:26:06;98017.47;;;27.52;28.05
53719;BME280;39616;48.872;9.390;2023-06-14T10:28:37;98014.78;;;28.06;27.90
53719;BME280;39616;48.872;9.390;2023-06-14T10:31:12;98014.03;;;28.29;27.73
53719;BME280;39616;48.872;9.390;2023-06-14T10:33:55;98016.97;;;26.88;28.37
53719;BME280;39616;48.872;9.390;2023-06-14T10:36:27;98022.16;;;26.34;30.04
53719;BME280;39616;48.872;9.390;2023-06-14T10:39:03;98016.84;;;26.58;29.78
53719;BME280;39616;48.872;9.390;2023-06-14T10:41:36;98005.75;;;26.54;29.81
53719;BME280;39616;48.872;9.390;2023-06-14T10:46:47;98020.75;;;25.06;31.28
53719;BME280;39616;48.872;9.390;2023-06-14T10:49:18;98004.97;;;24.28;32.00
53719;BME280;39616;48.872;9.390;2023-06-14T10:51:50;98009.75;;;24.63;31.80
53719;BME280;39616;48.872;9.390;2023-06-14T10:54:21;98008.38;;;25.46;31.60
53719;BME280;39616;48.872;9.390;2023-06-14T10:56:53;98009.47;;;25.70;31.00
53719;BME280;39616;48.872;9.390;2023-06-14T10:59:25;98011.53;;;25.52;30.30
53719;BME280;39616;48.872;9.390;2023-06-14T11:05:28;98008.31;;;26.27;29.80
53719;BME280;39616;48.872;9.390;2023-06-14T11:08:23;98006.03;;;25.38;30.54
53719;BME280;39616;48.872;9.390;2023-06-14T11:10:59;98004.47;;;25.29;31.11
53719;BME280;39616;48.872;9.390;2023-06-14T11:13:30;98006.09;;;25.23;30.68
53719;BME280;39616;48.872;9.390;2023-06-14T11:16:00;98004.28;;;25.72;29.10
53719;BME280;39616;48.872;9.390;2023-06-14T11:18:31;98002.91;;;25.21;30.62
53719;BME280;39616;48.872;9.390;2023-06-14T11:21:01;98009.97;;;25.40;30.50
53719;BME280;39616;48.872;9.390;2023-06-14T11:23:31;97996.75;;;26.32;29.97
53719;BME280;39616;48.872;9.390;2023-06-14T11:26:02;97998.84;;;27.11;27.84
53719;BME280;39616;48.872;9.390;2023-06-14T11:28:39;98005.81;;;25.84;28.95
53719;BME280;39616;48.872;9.390;2023-06-14T11:31:10;97996.25;;;26.52;30.14
53719;BME280;39616;48.872;9.390;2023-06-14T11:33:40;97991.25;;;26.25;28.37
53719;BME280;39616;48.872;9.390;2023-06-14T11:36:10;97990.22;;;26.60;28.89
53719;BME280;39616;48.872;9.390;2023-06-14T11:38:41;97998.09;;;26.65;29.75
53719;BME280;39616;48.872;9.390;2023-06-14T11:41:11;97994.72;;;26.40;30.48
53719;BME280;39616;48.872;9.390;2023-06-14T11:43:41;97998.34;;;25.70;30.06
53719;BME280;39616;48.872;9.390;2023-06-14T11:46:13;98009.66;;;25.24;31.19
53719;BME280;39616;48.872;9.390;2023-06-14T11:48:44;97998.63;;;24.77;31.76
53719;BME280;39616;48.872;9.390;2023-06-14T11:51:15;98002.59;;;24.69;32.40
53719;BME280;39616;48.872;9.390;2023-06-14T11:53:46;97993.88;;;24.10;33.11
53719;BME280;39616;48.872;9.390;2023-06-14T11:56:16;97999.81;;;24.01;34.15
53719;BME280;39616;48.872;9.390;2023-06-14T11:58:47;98002.22;;;24.39;32.85
53719;BME280;39616;48.872;9.390;2023-06-14T12:01:17;98000.25;;;24.68;32.74
53719;BME280;39616;48.872;9.390;2023-06-14T12:03:53;97998.66;;;24.38;32.92
53719;BME280;39616;48.872;9.390;2023-06-14T12:06:28;97993.94;;;24.53;32.90
53719;BME280;39616;48.872;9.390;2023-06-14T12:09:06;97996.28;;;24.65;32.94
53719;BME280;39616;48.872;9.390;2023-06-14T12:11:40;97991.81;;;25.25;32.24
53719;BME280;39616;48.872;9.390;2023-06-14T12:14:11;97987.31;;;26.22;31.03
53719;BME280;39616;48.872;9.390;2023-06-14T12:16:42;97980.97;;;26.22;29.69
53719;BME280;39616;48.872;9.390;2023-06-14T12:19:14;97988.34;;;26.43;29.61
53719;BME280;39616;48.872;9.390;2023-06-14T12:21:47;97985.31;;;26.26;30.34
53719;BME280;39616;48.872;9.390;2023-06-14T12:24:21;97977.88;;;27.37;29.85
53719;BME280;39616;48.872;9.390;2023-06-14T12:26:51;97974.97;;;27.48;30.17
53719;BME280;39616;48.872;9.390;2023-06-14T12:29:22;97985.50;;;26.91;29.47
53719;BME280;39616;48.872;9.390;2023-06-14T12:31:54;97981.59;;;26.47;30.87
53719;BME280;39616;48.872;9.390;2023-06-14T12:34:27;97986.03;;;25.75;30.29
53719;BME280;39616;48.872;9.390;2023-06-14T12:36:57;97989.16;;;25.77;31.30
53719;BME280;39616;48.872;9.390;2023-06-14T12:39:27;97973.94;;;25.33;32.58
53719;BME280;39616;48.872;9.390;2023-06-14T12:41:58;97994.69;;;24.28;33.26
53719;BME280;39616;48.872;9.390;2023-06-14T12:44:28;97989.56;;;24.41;33.70
53719;BME280;39616;48.872;9.390;2023-06-14T12:46:58;97987.59;;;24.52;34.01
53719;BME280;39616;48.872;9.390;2023-06-14T12:49:29;97988.38;;;24.53;33.52
53719;BME280;39616;48.872;9.390;2023-06-14T12:51:59;97991.16;;;24.53;33.83
53719;BME280;39616;48.872;9.390;2023-06-14T12:54:29;97983.19;;;24.30;34.13
53719;BME280;39616;48.872;9.390;2023-06-14T12:57:00;97998.50;;;23.63;34.28
53719;BME280;39616;48.872;9.390;2023-06-14T12:59:30;97996.25;;;23.90;34.56
53719;BME280;39616;48.872;9.390;2023-06-14T13:02:16;97985.16;;;23.90;34.31
53719;BME280;39616;48.872;9.390;2023-06-14T13:04:47;97987.56;;;24.17;34.20
53719;BME280;39616;48.872;9.390;2023-06-14T13:07:17;97987.53;;;24.88;33.60
53719;BME280;39616;48.872;9.390;2023-06-14T13:09:48;97997.81;;;24.91;33.43
53719;BME280;39616;48.872;9.390;2023-06-14T13:12:18;97987.97;;;24.65;33.47
53719;BME280;39616;48.872;9.390;2023-06-14T13:14:48;97987.97;;;24.44;33.25
53719;BME280;39616;48.872;9.390;2023-06-14T13:17:19;97994.72;;;24.64;33.50
53719;BME280;39616;48.872;9.390;2023-06-14T13:19:49;97985.16;;;24.83;33.68
53719;BME280;39616;48.872;9.390;2023-06-14T13:22:20;97992.31;;;24.45;33.78
53719;BME280;39616;48.872;9.390;2023-06-14T13:24:50;97991.94;;;24.57;34.01
53719;BME280;39616;48.872;9.390;2023-06-14T13:27:21;97992.31;;;24.77;33.24
53719;BME280;39616;48.872;9.390;2023-06-14T13:29:51;97978.53;;;25.68;33.33
53719;BME280;39616;48.872;9.390;2023-06-14T13:32:22;97982.97;;;26.18;32.27
53719;BME280;39616;48.872;9.390;2023-06-14T13:34:52;97987.78;;;26.66;32.00
53719;BME280;39616;48.872;9.390;2023-06-14T13:37:22;97986.34;;;26.47;31.86